Bethalto, Illinois
Current Conditions -  °F | °C
As of 4:15 AM on Saturday 25 Oct 2014 (Local Time) from KALN Reporting Station
Overcast Overcast  
Wind Chill: 60°   Ceiling: 3900
Heat Index: 60°   Visibility: 10mi
Dew Point: 56°   Wind: 5mph
Humidity: 88%   Direction: 220°SW
Pressure: 29.98"   Gusts: NA
Location:  38.91°N, 90.04°W
Report Text: KALN 250915Z AUTO 22004KT 10SM OVC039 16/14 A2998 RMK AO2 T01550135
Loading
Personal Weather Stations






























Interactive Weather Map
Tropical Storm Tracking
New forecast layout! Learn more

10-Day Weather Forecast

Advertisements
Track Severe Weather on mobile